Time;durP1;ratioP1;P1;durP2;ratioP2;P2;SDS_P1;SDS_P2;PMS_P1;PMS_P2;Temp;Humidity;BMP_temperature;BMP_pressure;BME280_temperature;BME280_humidity;BME280_pressure;Samples;Min_cycle;Max_cycle;Signal;HPM_P1;HPM_P2
2022/11/16 00:01:46;;;;;;;12.45;11.25;;;;;;;11.34;100.00;99705.47;5032290;28;20393;-69
2022/11/16 00:04:12;;;;;;;12.13;10.73;;;;;;;11.34;100.00;99702.81;5039450;28;20087;-69
2022/11/16 00:06:37;;;;;;;12.15;10.95;;;;;;;11.31;100.00;99695.09;5048883;28;20527;-70
2022/11/16 00:09:21;;;;;;;12.00;10.80;;;;;;;11.34;100.00;99693.97;5041294;28;20033;-69
2022/11/16 00:11:56;;;;;;;12.00;10.77;;;;;;;11.31;100.00;99705.72;5032142;28;20045;-69
2022/11/16 00:14:23;;;;;;;11.85;10.57;;;;;;;11.33;100.00;99711.78;5046322;28;20063;-69
2022/11/16 00:16:49;;;;;;;12.95;11.38;;;;;;;11.40;100.00;99713.91;5035344;28;20103;-69
2022/11/16 00:19:15;;;;;;;13.80;11.18;;;;;;;11.34;100.00;99710.78;5032504;28;20037;-69
2022/11/16 00:21:40;;;;;;;14.75;11.00;;;;;;;11.33;100.00;99701.13;5047418;28;20477;-69
2022/11/16 00:24:06;;;;;;;13.60;12.13;;;;;;;11.36;100.00;99708.03;5039070;28;20033;-69
2022/11/16 00:26:32;;;;;;;14.77;10.77;;;;;;;11.38;100.00;99708.72;5042910;28;20496;-67
2022/11/16 00:28:58;;;;;;;12.48;11.23;;;;;;;11.35;100.00;99709.84;5037935;28;20031;-69
2022/11/16 00:31:26;;;;;;;12.18;10.93;;;;;;;11.34;100.00;99704.63;5040441;28;20120;-70
2022/11/16 00:33:52;;;;;;;13.15;11.85;;;;;;;11.30;100.00;99703.22;5043523;28;20064;-68
2022/11/16 00:36:17;;;;;;;13.98;11.23;;;;;;;11.32;100.00;99693.25;5043004;28;20037;-70
2022/11/16 00:38:43;;;;;;;15.32;12.05;;;;;;;11.32;100.00;99687.94;5031536;28;20029;-70
2022/11/16 00:41:11;;;;;;;13.00;11.70;;;;;;;11.31;100.00;99678.28;5046694;28;20112;-70
2022/11/16 00:43:36;;;;;;;12.40;11.18;;;;;;;11.32;100.00;99671.97;5041679;28;20053;-69
2022/11/16 00:46:02;;;;;;;13.98;11.50;;;;;;;11.33;100.00;99663.03;5043166;28;20063;-68
2022/11/16 00:48:28;;;;;;;12.05;10.73;;;;;;;11.27;100.00;99675.03;5034466;28;20034;-69
2022/11/16 00:50:53;;;;;;;11.63;10.57;;;;;;;11.32;100.00;99698.59;5030751;28;20026;-69
2022/11/16 00:53:19;;;;;;;13.85;11.48;;;;;;;11.30;100.00;99704.06;5029687;28;20029;-69
2022/11/16 00:55:46;;;;;;;11.30;10.23;;;;;;;11.31;100.00;99694.25;5030303;28;20113;-68
2022/11/16 00:58:12;;;;;;;14.18;11.57;;;;;;;11.33;100.00;99700.28;5037256;28;20029;-69
2022/11/16 01:00:39;;;;;;;12.18;10.63;;;;;;;11.33;100.00;99703.78;5045517;28;20075;-68
2022/11/16 01:03:05;;;;;;;11.73;10.63;;;;;;;11.32;100.00;99691.47;5032849;28;20075;-69
2022/11/16 01:05:31;;;;;;;14.40;10.73;;;;;;;11.33;100.00;99687.81;5033121;28;20172;-69
2022/11/16 01:07:57;;;;;;;11.02;9.82;;;;;;;11.34;100.00;99683.34;5049235;28;20028;-69
2022/11/16 01:10:23;;;;;;;11.93;10.13;;;;;;;11.33;100.00;99698.47;5048823;28;20078;-69
2022/11/16 01:12:50;;;;;;;11.55;10.18;;;;;;;11.34;100.00;99676.19;5038699;28;20037;-69
2022/11/16 01:15:17;;;;;;;10.80;9.70;;;;;;;11.33;100.00;99676.34;5032984;28;20108;-69
2022/11/16 01:17:43;;;;;;;10.65;9.57;;;;;;;11.32;100.00;99669.31;5039409;28;20032;-69
2022/11/16 01:20:16;;;;;;;10.88;9.77;;;;;;;11.35;100.00;99669.91;5034262;28;20035;-69
2022/11/16 01:22:42;;;;;;;11.13;10.02;;;;;;;11.37;100.00;99664.44;5035802;28;20025;-69
2022/11/16 01:25:09;;;;;;;11.93;10.48;;;;;;;11.35;100.00;99663.72;5033652;28;20545;-69
2022/11/16 01:27:38;;;;;;;12.02;9.85;;;;;;;11.35;100.00;99659.25;5034887;28;20025;-68
2022/11/16 01:30:08;;;;;;;11.48;9.90;;;;;;;11.36;100.00;99666.25;5034099;28;20064;-69
2022/11/16 01:32:37;;;;;;;10.82;9.73;;;;;;;11.36;100.00;99660.09;5035057;28;20108;-69
2022/11/16 01:35:04;;;;;;;10.57;9.48;;;;;;;11.30;100.00;99645.50;5033715;28;20087;-69
2022/11/16 01:37:32;;;;;;;11.70;9.65;;;;;;;11.38;100.00;99666.13;5040083;28;20020;-69
2022/11/16 01:39:58;;;;;;;10.63;9.60;;;;;;;11.35;100.00;99658.41;5034367;28;20041;-69
2022/11/16 01:42:26;;;;;;;10.05;9.07;;;;;;;11.29;100.00;99646.44;5034650;28;20030;-69
2022/11/16 01:45:03;;;;;;;10.82;9.75;;;;;;;11.35;100.00;99656.59;5037722;28;20128;-69
2022/11/16 01:47:29;;;;;;;11.95;9.70;;;;;;;11.35;100.00;99653.06;5038127;28;20396;-69
2022/11/16 01:50:08;;;;;;;11.70;10.50;;;;;;;11.38;100.00;99658.13;5037554;28;20037;-68
2022/11/16 01:52:45;;;;;;;10.93;9.27;;;;;;;11.40;100.00;99660.69;5033644;28;20025;-68
2022/11/16 01:55:11;;;;;;;10.95;9.95;;;;;;;11.41;100.00;99662.34;5034288;28;20036;-69
2022/11/16 01:57:39;;;;;;;13.25;10.00;;;;;;;11.37;100.00;99653.78;5035304;28;20076;-69
2022/11/16 02:00:09;;;;;;;10.75;9.80;;;;;;;11.42;100.00;99653.41;5034115;28;20435;-69
2022/11/16 02:02:34;;;;;;;10.73;9.73;;;;;;;11.41;100.00;99655.19;5037161;28;20036;-69
2022/11/16 02:05:01;;;;;;;11.43;10.23;;;;;;;11.37;100.00;99646.63;5043878;28;20029;-69
2022/11/16 02:11:20;;;;;;;15.73;10.60;;;;;;;11.41;100.00;99643.72;5037225;28;20075;-68
2022/11/16 02:13:53;;;;;;;11.90;10.32;;;;;;;11.41;100.00;99644.56;5032097;28;20093;-69
2022/11/16 02:16:31;;;;;;;11.35;10.25;;;;;;;11.44;100.00;99646.13;5038468;28;20104;-69
2022/11/16 02:19:12;;;;;;;13.68;11.63;;;;;;;11.40;100.00;99634.88;5052187;28;20028;-69
2022/11/16 02:22:14;;;;;;;11.32;10.10;;;;;;;11.41;100.00;99636.56;5049615;28;20032;-69
2022/11/16 02:24:55;;;;;;;11.02;9.93;;;;;;;11.45;100.00;99638.00;5048908;28;20036;-69
2022/11/16 02:27:57;;;;;;;11.95;10.75;;;;;;;11.46;100.00;99644.16;5046754;28;20037;-69
2022/11/16 02:30:23;;;;;;;11.43;9.95;;;;;;;11.44;100.00;99635.47;5052182;28;20021;-69
2022/11/16 02:33:02;;;;;;;12.98;11.32;;;;;;;11.39;100.00;99648.34;5043423;28;20044;-70
2022/11/16 02:35:49;;;;;;;14.55;10.77;;;;;;;11.39;100.00;99651.00;5044470;28;20033;-70
2022/11/16 02:38:30;;;;;;;10.68;9.52;;;;;;;11.33;100.00;99633.75;5033163;28;20373;-68
2022/11/16 02:41:20;;;;;;;8.70;7.90;;;;;;;11.42;100.00;99645.44;5031003;28;20033;-69
2022/11/16 02:43:59;;;;;;;9.23;8.32;;;;;;;11.40;100.00;99645.53;5048140;28;20025;-69
2022/11/16 02:46:32;;;;;;;10.60;8.20;;;;;;;11.38;100.00;99642.16;5047112;28;20072;-69
2022/11/16 02:49:02;;;;;;;9.52;7.95;;;;;;;11.39;100.00;99651.00;5051410;28;20468;-68
2022/11/16 02:51:29;;;;;;;14.88;7.90;;;;;;;11.35;100.00;99661.94;5037421;28;20324;-69
2022/11/16 02:54:17;;;;;;;8.73;7.55;;;;;;;11.39;100.00;99665.16;5033415;28;20037;-69
2022/11/16 02:56:52;;;;;;;9.18;8.27;;;;;;;11.37;100.00;99667.09;5045980;28;20057;-69
2022/11/16 02:59:18;;;;;;;10.75;8.07;;;;;;;11.36;100.00;99660.09;5033183;28;20428;-69
2022/11/16 03:01:51;;;;;;;8.30;7.60;;;;;;;11.34;100.00;99657.56;5033341;28;20485;-69
2022/11/16 03:04:26;;;;;;;7.40;6.70;;;;;;;11.34;100.00;99652.22;5040755;28;20062;-69
2022/11/16 03:06:55;;;;;;;7.63;6.93;;;;;;;11.32;100.00;99656.00;5032179;28;20018;-69
2022/11/16 03:09:26;;;;;;;7.65;5.82;;;;;;;11.27;100.00;99652.91;5032282;28;20543;-69
2022/11/16 03:11:58;;;;;;;7.05;5.95;;;;;;;11.20;100.00;99647.22;5033030;28;20041;-69
2022/11/16 03:14:54;;;;;;;6.60;6.03;;;;;;;11.28;100.00;99670.56;5050230;28;20432;-69
2022/11/16 03:17:48;;;;;;;5.88;4.95;;;;;;;11.26;100.00;99667.16;5038623;28;20025;-69
2022/11/16 03:20:16;;;;;;;5.20;4.80;;;;;;;11.19;100.00;99664.19;5033888;28;20534;-69
2022/11/16 03:22:45;;;;;;;6.60;5.03;;;;;;;11.13;100.00;99662.06;5031842;28;20037;-69
2022/11/16 03:25:15;;;;;;;5.07;4.20;;;;;;;11.10;100.00;99673.78;5045181;28;20025;-70
2022/11/16 03:27:53;;;;;;;7.70;4.20;;;;;;;11.07;100.00;99676.72;5051280;28;20395;-69
2022/11/16 03:30:23;;;;;;;4.00;3.65;;;;;;;11.02;100.00;99664.75;5047119;28;20028;-69
2022/11/16 03:33:04;;;;;;;4.25;3.35;;;;;;;10.98;100.00;99679.31;5048715;28;20049;-69
2022/11/16 03:35:37;;;;;;;6.45;3.63;;;;;;;10.92;100.00;99680.66;5035979;28;20025;-69
2022/11/16 03:38:05;;;;;;;3.50;3.20;;;;;;;10.87;100.00;99674.88;5043338;28;20025;-69
2022/11/16 03:40:35;;;;;;;5.38;3.45;;;;;;;10.80;100.00;99669.22;5049477;28;20024;-69
2022/11/16 03:43:05;;;;;;;5.05;3.60;;;;;;;10.87;100.00;99682.84;5052071;28;20017;-69
2022/11/16 03:45:34;;;;;;;4.32;3.90;;;;;;;10.83;100.00;99684.94;5048868;28;20025;-69
2022/11/16 03:48:00;;;;;;;4.40;3.65;;;;;;;10.87;100.00;99686.34;5032564;28;20046;-69
2022/11/16 03:50:28;;;;;;;5.80;4.43;;;;;;;10.87;100.00;99688.16;5042504;28;20029;-69
2022/11/16 03:52:54;;;;;;;4.57;4.18;;;;;;;10.84;100.00;99697.25;5044212;28;20037;-69
2022/11/16 03:55:19;;;;;;;5.68;4.53;;;;;;;10.82;100.00;99698.34;5033098;28;20083;-69
2022/11/16 03:57:44;;;;;;;5.90;4.45;;;;;;;10.80;100.00;99705.63;5046590;28;20460;-69
2022/11/16 04:00:11;;;;;;;4.78;4.03;;;;;;;10.76;100.00;99704.16;5049675;28;20087;-69
2022/11/16 04:02:36;;;;;;;5.22;4.15;;;;;;;10.69;100.00;99699.34;5045596;28;20033;-69
2022/11/16 04:24:29;;;;;;;4.45;3.90;;;;;;;10.58;100.00;99711.84;5031142;28;20555;-69
2022/11/16 04:29:46;;;;;;;4.57;3.70;;;;;;;10.55;100.00;99704.94;5049563;28;20511;-69
2022/11/16 04:37:48;;;;;;;4.72;4.13;;;;;;;10.47;100.00;99715.38;5038716;28;20082;-69
2022/11/16 04:40:18;;;;;;;6.30;3.75;;;;;;;10.45;100.00;99719.97;5048042;28;20571;-69
2022/11/16 04:42:52;;;;;;;5.90;4.13;;;;;;;10.42;100.00;99718.41;5037305;28;20502;-69
2022/11/16 04:48:02;;;;;;;5.40;3.95;;;;;;;10.35;100.00;99727.84;5036756;28;20469;-69
2022/11/16 04:50:28;;;;;;;8.25;4.13;;;;;;;10.30;100.00;99740.66;5048208;28;20593;-69
2022/11/16 04:52:53;;;;;;;8.85;4.45;;;;;;;10.26;100.00;99731.19;5039149;28;20495;-69
2022/11/16 04:55:18;;;;;;;6.75;5.38;;;;;;;10.17;100.00;99726.59;5038997;28;20068;-69
2022/11/16 04:57:44;;;;;;;8.23;5.38;;;;;;;10.23;100.00;99740.28;5035005;28;20033;-69
2022/11/16 05:00:10;;;;;;;6.80;4.43;;;;;;;10.22;100.00;99743.03;5034277;28;20060;-69
2022/11/16 05:02:36;;;;;;;8.93;5.07;;;;;;;10.23;100.00;99750.03;5038010;28;20048;-69
2022/11/16 05:05:02;;;;;;;8.38;5.15;;;;;;;10.19;100.00;99752.09;5045403;28;20029;-69
2022/11/16 05:07:30;;;;;;;8.68;5.05;;;;;;;10.16;100.00;99739.06;5052458;28;20032;-69
2022/11/16 05:09:58;;;;;;;10.63;5.70;;;;;;;10.17;100.00;99746.03;5050094;28;20075;-69
2022/11/16 05:12:26;;;;;;;9.52;4.88;;;;;;;10.08;100.00;99732.66;5045656;28;20535;-69
2022/11/16 05:14:53;;;;;;;7.78;5.03;;;;;;;10.11;100.00;99738.56;5050100;28;20032;-69
2022/11/16 05:17:22;;;;;;;9.18;4.60;;;;;;;10.11;100.00;99748.34;5042103;28;20030;-69
2022/11/16 05:22:32;;;;;;;9.48;4.80;;;;;;;10.05;100.00;99752.34;5035927;28;20039;-69
2022/11/16 05:24:58;;;;;;;8.00;4.82;;;;;;;9.98;100.00;99748.47;5052086;28;20392;-69
2022/11/16 05:27:25;;;;;;;11.75;5.50;;;;;;;10.03;100.00;99741.00;5035457;28;20121;-68
2022/11/16 05:29:51;;;;;;;7.03;4.80;;;;;;;9.93;100.00;99743.50;5034075;28;20056;-69
2022/11/16 05:32:18;;;;;;;9.98;5.28;;;;;;;9.88;100.00;99735.09;5042515;28;20068;-69
2022/11/16 05:34:44;;;;;;;8.82;4.65;;;;;;;9.90;100.00;99735.78;5033708;28;20022;-69
2022/11/16 05:37:10;;;;;;;7.90;5.13;;;;;;;9.86;100.00;99730.84;5041133;28;20400;-69
2022/11/16 05:39:36;;;;;;;5.70;4.10;;;;;;;9.77;100.00;99729.75;5037893;28;20055;-68
2022/11/16 05:42:03;;;;;;;6.82;4.38;;;;;;;9.71;100.00;99728.41;5037587;28;20468;-69
2022/11/16 05:44:29;;;;;;;6.55;4.40;;;;;;;9.60;100.00;99744.31;5051858;28;20021;-68
2022/11/16 05:46:55;;;;;;;6.55;4.55;;;;;;;9.64;100.00;99744.94;5051404;28;20098;-67
2022/11/16 05:49:21;;;;;;;6.68;4.60;;;;;;;9.55;100.00;99746.47;5046750;28;20120;-69
2022/11/16 05:51:47;;;;;;;6.03;4.75;;;;;;;9.54;100.00;99750.09;5046620;28;20029;-69
2022/11/16 05:54:17;;;;;;;7.25;5.28;;;;;;;9.52;100.00;99757.34;5037130;28;20092;-69
2022/11/16 05:56:43;;;;;;;7.65;5.38;;;;;;;9.57;100.00;99757.84;5045206;28;20083;-69
2022/11/16 05:59:12;;;;;;;8.23;5.03;;;;;;;9.54;100.00;99756.25;5044888;28;20029;-69
2022/11/16 06:01:37;;;;;;;9.80;6.00;;;;;;;9.54;100.00;99760.72;5037272;28;20029;-69
2022/11/16 06:04:03;;;;;;;10.05;6.22;;;;;;;9.53;100.00;99761.69;5050562;28;20032;-69
2022/11/16 06:06:31;;;;;;;9.98;6.22;;;;;;;9.51;100.00;99764.47;5039824;28;20033;-69
2022/11/16 06:08:56;;;;;;;11.18;6.60;;;;;;;9.48;100.00;99763.84;5035429;28;20033;-67
2022/11/16 06:11:22;;;;;;;9.60;5.65;;;;;;;9.42;100.00;99762.50;5033187;28;20032;-68
2022/11/16 06:13:48;;;;;;;10.05;5.82;;;;;;;9.44;100.00;99763.25;5032968;28;20029;-68
2022/11/16 06:16:14;;;;;;;7.72;5.75;;;;;;;9.37;100.00;99761.16;5045690;28;20427;-69
2022/11/16 06:18:41;;;;;;;11.50;5.93;;;;;;;9.42;100.00;99772.28;5051725;28;20025;-69
2022/11/16 06:21:07;;;;;;;10.63;5.75;;;;;;;9.29;100.00;99769.69;5051752;28;20021;-69
2022/11/16 06:23:33;;;;;;;13.75;6.25;;;;;;;9.37;100.00;99769.13;5052438;28;20017;-67
2022/11/16 06:26:00;;;;;;;6.95;5.53;;;;;;;9.38;100.00;99776.94;5045668;28;20480;-69
2022/11/16 06:28:26;;;;;;;9.35;6.00;;;;;;;9.24;100.00;99788.63;5044391;28;20028;-68
2022/11/16 06:30:52;;;;;;;9.93;5.60;;;;;;;9.33;100.00;99800.34;5052946;28;20032;-69
2022/11/16 06:33:17;;;;;;;12.05;6.28;;;;;;;9.33;100.00;99795.88;5053071;28;20029;-69
2022/11/16 06:35:43;;;;;;;11.93;5.22;;;;;;;9.30;100.00;99798.78;5046368;28;20100;-69
2022/11/16 06:38:08;;;;;;;10.00;5.90;;;;;;;9.26;100.00;99804.41;5053026;28;20086;-69
2022/11/16 06:40:34;;;;;;;8.00;5.38;;;;;;;9.23;100.00;99797.53;5051395;28;20025;-69
2022/11/16 06:42:59;;;;;;;11.60;5.70;;;;;;;9.19;100.00;99801.38;5042310;28;20029;-69
2022/11/16 06:45:25;;;;;;;9.45;5.80;;;;;;;9.20;100.00;99797.75;5034292;28;20120;-69
2022/11/16 06:47:51;;;;;;;14.13;6.15;;;;;;;9.12;100.00;99804.56;5043981;28;20450;-69
2022/11/16 06:50:18;;;;;;;13.07;5.72;;;;;;;9.09;100.00;99803.03;5050697;28;20035;-69
2022/11/16 06:52:48;;;;;;;7.85;4.70;;;;;;;9.12;100.00;99801.94;5050806;28;20021;-69
2022/11/16 06:55:16;;;;;;;8.02;5.30;;;;;;;9.05;100.00;99809.50;5050281;28;20078;-68
2022/11/16 06:57:45;;;;;;;10.60;5.78;;;;;;;9.06;100.00;99806.75;5048209;28;20400;-69
2022/11/16 07:00:11;;;;;;;8.00;5.18;;;;;;;9.03;100.00;99799.03;5052328;28;20383;-67
2022/11/16 07:02:37;;;;;;;9.60;5.63;;;;;;;9.03;100.00;99804.31;5047821;28;20464;-69
2022/11/16 07:05:03;;;;;;;11.05;5.60;;;;;;;8.98;100.00;99809.09;5043778;28;20043;-69
2022/11/16 07:07:29;;;;;;;9.38;6.30;;;;;;;8.96;100.00;99812.81;5036231;28;20456;-68
2022/11/16 07:09:57;;;;;;;11.52;6.00;;;;;;;8.96;100.00;99821.63;5030270;28;20048;-69
2022/11/16 07:12:22;;;;;;;13.02;5.90;;;;;;;8.94;100.00;99820.91;5046482;28;20041;-69
2022/11/16 07:14:49;;;;;;;11.98;5.90;;;;;;;8.90;100.00;99818.56;5052317;28;20571;-69
2022/11/16 07:17:14;;;;;;;10.63;6.20;;;;;;;8.93;100.00;99826.31;5050504;28;20094;-67
2022/11/16 07:19:40;;;;;;;11.02;7.60;;;;;;;8.93;100.00;99831.63;5051967;28;20120;-69
2022/11/16 07:22:06;;;;;;;13.20;7.85;;;;;;;8.92;100.00;99824.63;5050648;28;20036;-69
2022/11/16 07:24:31;;;;;;;19.45;8.82;;;;;;;8.95;100.00;99840.31;5050579;28;20051;-68
2022/11/16 07:26:57;;;;;;;14.68;8.95;;;;;;;8.90;100.00;99830.03;5048859;28;20028;-68
2022/11/16 07:29:23;;;;;;;18.23;9.90;;;;;;;8.85;100.00;99834.81;5050162;28;20029;-68
2022/11/16 07:31:51;;;;;;;15.10;9.23;;;;;;;8.83;100.00;99834.94;5050651;28;20373;-69
2022/11/16 07:34:16;;;;;;;18.92;10.77;;;;;;;8.90;100.00;99843.28;5052278;28;20365;-69
2022/11/16 07:36:42;;;;;;;18.77;10.02;;;;;;;8.89;100.00;99843.41;5051744;28;20024;-69
2022/11/16 07:39:09;;;;;;;19.30;10.05;;;;;;;8.89;100.00;99848.72;5051785;28;20477;-69
2022/11/16 07:41:35;;;;;;;18.00;10.25;;;;;;;8.86;100.00;99842.66;5049598;28;20539;-69
2022/11/16 07:44:01;;;;;;;15.40;9.07;;;;;;;8.81;100.00;99843.94;5051800;28;20017;-67
2022/11/16 07:46:26;;;;;;;18.27;10.10;;;;;;;8.83;100.00;99850.84;5051436;28;20072;-66
2022/11/16 07:48:52;;;;;;;17.90;10.00;;;;;;;8.90;100.00;99859.19;5051522;28;20040;-66
2022/11/16 07:51:18;;;;;;;15.88;9.07;;;;;;;8.86;100.00;99861.22;5049862;28;20041;-67
2022/11/16 07:53:44;;;;;;;15.27;9.07;;;;;;;8.90;100.00;99858.34;5051601;28;20135;-66
2022/11/16 07:56:11;;;;;;;18.63;9.18;;;;;;;8.86;100.00;99861.22;5050666;28;20028;-66
2022/11/16 07:58:38;;;;;;;14.75;9.20;;;;;;;8.90;100.00;99867.16;5051524;28;20036;-66
2022/11/16 08:01:03;;;;;;;17.42;8.00;;;;;;;8.87;100.00;99864.72;5048735;28;20484;-66
2022/11/16 08:03:30;;;;;;;16.30;8.10;;;;;;;8.87;100.00;99868.22;5051496;28;20017;-66
2022/11/16 08:06:04;;;;;;;14.05;7.22;;;;;;;8.89;100.00;99870.78;5051223;28;20479;-66
2022/11/16 08:08:33;;;;;;;13.18;6.97;;;;;;;8.92;100.00;99873.19;5051446;28;20078;-66
2022/11/16 08:11:03;;;;;;;13.90;7.53;;;;;;;8.90;100.00;99874.25;5050071;28;20399;-66
2022/11/16 08:13:30;;;;;;;15.88;6.68;;;;;;;8.93;100.00;99876.69;5051023;28;20396;-66
2022/11/16 08:16:08;;;;;;;14.23;6.63;;;;;;;8.96;100.00;99869.34;5051359;28;20448;-66
2022/11/16 08:18:34;;;;;;;10.10;6.35;;;;;;;8.92;100.00;99872.34;5051269;28;20111;-66
2022/11/16 08:21:01;;;;;;;15.43;6.72;;;;;;;8.97;100.00;99876.38;5049589;28;20024;-66
2022/11/16 08:23:30;;;;;;;13.18;6.05;;;;;;;8.96;100.00;99876.47;5053343;28;20025;-66
2022/11/16 08:26:00;;;;;;;13.32;5.72;;;;;;;9.05;100.00;99873.16;5054838;28;20043;-66
2022/11/16 08:28:27;;;;;;;19.35;6.38;;;;;;;8.99;100.00;99870.94;5055538;28;20037;-66
2022/11/16 08:30:53;;;;;;;13.10;5.70;;;;;;;9.06;100.00;99875.72;5052453;28;20522;-66
2022/11/16 08:33:20;;;;;;;15.63;5.50;;;;;;;9.07;100.00;99876.56;5055392;28;20033;-66
2022/11/16 08:35:47;;;;;;;13.85;6.10;;;;;;;9.10;100.00;99871.03;5051039;28;20032;-66
2022/11/16 08:38:14;;;;;;;18.35;6.22;;;;;;;9.14;100.00;99871.63;5039644;28;20475;-66
2022/11/16 08:40:40;;;;;;;16.30;5.97;;;;;;;9.16;100.00;99870.56;5036009;28;20427;-67
2022/11/16 08:43:06;;;;;;;13.18;5.45;;;;;;;9.18;99.74;99873.13;5035760;28;20025;-66
2022/11/16 08:45:32;;;;;;;14.07;4.82;;;;;;;9.20;99.50;99872.03;5033713;28;20029;-66
2022/11/16 08:47:58;;;;;;;12.15;5.38;;;;;;;9.19;99.08;99877.47;5033442;28;20485;-66
2022/11/16 08:50:24;;;;;;;15.00;4.93;;;;;;;9.19;99.53;99880.97;5034018;28;20090;-66
2022/11/16 08:52:50;;;;;;;14.23;5.10;;;;;;;9.20;99.40;99887.09;5045734;28;20025;-66
2022/11/16 08:55:17;;;;;;;13.60;5.60;;;;;;;9.17;98.84;99876.72;5038919;28;20040;-67
2022/11/16 08:57:42;;;;;;;14.18;5.40;;;;;;;9.21;100.00;99886.16;5034867;28;20032;-66
2022/11/16 09:00:09;;;;;;;10.65;4.85;;;;;;;9.25;99.88;99884.97;5042862;28;20032;-66
2022/11/16 09:02:35;;;;;;;12.45;5.07;;;;;;;9.30;98.70;99885.50;5048651;28;20103;-66
2022/11/16 09:05:00;;;;;;;14.63;4.97;;;;;;;9.32;97.97;99888.84;5052013;28;20096;-66
2022/11/16 09:07:26;;;;;;;13.75;5.15;;;;;;;9.36;98.60;99887.69;5049799;28;20025;-66
2022/11/16 09:09:51;;;;;;;12.10;5.07;;;;;;;9.40;97.79;99890.97;5033464;28;20048;-66
2022/11/16 09:12:16;;;;;;;12.15;5.10;;;;;;;9.46;97.68;99886.03;5034723;28;20025;-66
2022/11/16 09:14:42;;;;;;;14.25;5.35;;;;;;;9.50;97.35;99887.53;5016756;28;20083;-65
2022/11/16 09:17:07;;;;;;;11.43;4.88;;;;;;;9.55;96.69;99890.66;5051381;28;20040;-66
2022/11/16 09:19:33;;;;;;;16.08;5.30;;;;;;;9.63;97.31;99895.41;5054251;28;20116;-66
2022/11/16 09:21:58;;;;;;;12.45;5.05;;;;;;;9.66;96.62;99894.34;5041308;28;20055;-66
2022/11/16 09:24:26;;;;;;;16.10;4.95;;;;;;;9.66;96.95;99886.38;5033522;28;20042;-66
2022/11/16 09:26:51;;;;;;;16.20;5.57;;;;;;;9.74;95.76;99898.13;5034483;28;20489;-66
2022/11/16 09:29:17;;;;;;;14.20;5.82;;;;;;;9.82;94.47;99910.81;5033081;28;20117;-65
2022/11/16 09:31:42;;;;;;;12.95;4.78;;;;;;;9.83;94.77;99888.63;5034017;28;20059;-65
2022/11/16 09:34:10;;;;;;;15.40;4.68;;;;;;;9.89;94.14;99895.28;5033444;28;20364;-65
2022/11/16 09:36:35;;;;;;;11.00;4.32;;;;;;;9.97;94.96;99899.03;5048271;28;20033;-66
2022/11/16 09:39:02;;;;;;;12.63;4.32;;;;;;;10.02;94.18;99901.34;5054172;28;20017;-66
2022/11/16 09:41:54;;;;;;;16.73;4.45;;;;;;;10.06;93.04;99894.84;5053703;28;20052;-65
2022/11/16 09:44:47;;;;;;;12.88;4.53;;;;;;;10.25;93.73;99899.59;5054263;28;20028;-66
2022/11/16 09:47:20;;;;;;;10.82;3.85;;;;;;;10.31;91.20;99901.78;5050962;28;20524;-66
2022/11/16 09:49:59;;;;;;;14.93;4.65;;;;;;;10.44;92.62;99899.03;5033657;28;20110;-66
2022/11/16 09:52:29;;;;;;;12.60;4.28;;;;;;;10.55;91.61;99903.50;5033022;28;20017;-66
2022/11/16 09:54:56;;;;;;;7.50;3.90;;;;;;;10.60;91.34;99901.34;5032815;28;20111;-66
2022/11/16 09:57:28;;;;;;;9.70;3.42;;;;;;;10.66;88.45;99896.38;5033773;28;20037;-66
2022/11/16 10:00:02;;;;;;;14.05;3.90;;;;;;;10.89;88.02;99907.03;5033365;28;20100;-66
2022/11/16 10:02:37;;;;;;;13.30;3.83;;;;;;;11.19;87.73;99910.88;5033695;28;20052;-66
2022/11/16 10:05:31;;;;;;;12.55;3.72;;;;;;;11.59;85.71;99903.13;5034250;28;20083;-66
2022/11/16 10:08:08;;;;;;;12.73;4.10;;;;;;;11.91;81.84;99911.16;5040103;28;20466;-66
2022/11/16 10:10:38;;;;;;;13.13;4.10;;;;;;;12.04;81.10;99916.28;5052817;28;20100;-66
2022/11/16 10:13:22;;;;;;;;;;;;;;;12.40;82.91;99911.47;5052432;28;20028;-66
2022/11/16 10:16:02;;;;;;;8.88;3.53;;;;;;;12.57;79.92;99908.19;5039203;28;19956;-66
2022/11/16 10:18:46;;;;;;;6.85;2.92;;;;;;;12.95;78.01;99912.84;5034696;28;20168;-66
2022/11/16 10:21:48;;;;;;;10.77;3.75;;;;;;;13.15;76.57;99902.25;5034035;28;20038;-66
2022/11/16 10:24:34;;;;;;;7.43;2.72;;;;;;;13.42;74.61;99914.97;5035482;28;20037;-66
2022/11/16 10:27:44;;;;;;;9.23;3.33;;;;;;;13.73;74.60;99902.31;5032046;28;20043;-66
2022/11/16 10:30:20;;;;;;;9.43;2.97;;;;;;;14.14;69.67;99902.16;5031962;28;20041;-66
2022/11/16 10:32:59;;;;;;;7.20;2.72;;;;;;;14.37;68.15;99908.03;5033033;28;20025;-66
2022/11/16 10:35:30;;;;;;;7.03;2.65;;;;;;;14.48;66.58;99898.00;5034100;28;20052;-66
2022/11/16 10:38:01;;;;;;;9.15;2.55;;;;;;;14.64;66.45;99901.94;5033195;28;20059;-66
2022/11/16 10:40:37;;;;;;;9.75;3.22;;;;;;;14.86;65.89;99906.94;5032530;28;20112;-66
2022/11/16 10:43:15;;;;;;;5.78;2.20;;;;;;;15.06;64.63;99906.81;5032903;28;20029;-66
2022/11/16 10:46:12;;;;;;;6.07;2.47;;;;;;;15.53;66.34;99904.88;5032809;28;20087;-67
2022/11/16 10:48:41;;;;;;;4.95;2.38;;;;;;;15.54;63.64;99906.53;5039382;28;20045;-66
2022/11/16 10:51:08;;;;;;;5.97;2.38;;;;;;;15.34;64.97;99899.63;5052716;28;20028;-66
2022/11/16 10:53:39;;;;;;;6.18;2.22;;;;;;;15.14;64.66;99899.72;5051516;28;20029;-66
2022/11/16 10:56:14;;;;;;;9.07;2.80;;;;;;;14.72;66.56;99904.72;5049927;28;20029;-66
2022/11/16 10:58:58;;;;;;;7.93;2.42;;;;;;;14.72;67.76;99902.88;5052722;28;20135;-66
2022/11/16 11:01:28;;;;;;;9.23;2.83;;;;;;;14.70;64.46;99910.22;5052207;28;20396;-66
2022/11/16 11:03:53;;;;;;;9.73;2.72;;;;;;;14.95;65.42;99903.38;5050855;28;20021;-66
2022/11/16 11:06:24;;;;;;;7.25;2.38;;;;;;;14.86;64.28;99901.56;5050447;28;20048;-66
2022/11/16 11:09:14;;;;;;;9.13;2.92;;;;;;;14.43;66.49;99896.75;5129467;27;20781;-65
2022/11/16 11:14:23;;;;;;;5.00;2.35;;;;;;;13.95;65.38;99897.69;5127967;27;20112;-65
2022/11/16 11:16:52;;;;;;;9.52;2.83;;;;;;;13.61;68.37;99903.44;5128384;28;20070;-65
2022/11/16 11:19:26;;;;;;;6.25;2.58;;;;;;;13.35;68.43;99903.13;5109520;28;20031;-65
2022/11/16 11:21:56;;;;;;;7.18;2.85;;;;;;;13.02;69.54;99902.47;5128196;28;20027;-65
2022/11/16 11:24:23;;;;;;;7.55;2.88;;;;;;;12.81;69.51;99883.84;5129852;27;20019;-65
2022/11/16 11:26:53;;;;;;;11.18;3.40;;;;;;;12.72;71.23;99892.66;5127806;27;20081;-65
2022/11/16 11:29:21;;;;;;;7.72;3.10;;;;;;;12.55;73.27;99894.13;5127895;27;20038;-65
2022/11/16 11:31:54;;;;;;;10.23;3.33;;;;;;;12.45;71.42;99893.25;5115495;27;20088;-65
2022/11/16 11:34:26;;;;;;;11.35;3.15;;;;;;;12.20;73.17;99883.84;5120421;28;20482;-65
2022/11/16 11:36:53;;;;;;;7.07;2.80;;;;;;;12.07;72.75;99873.38;5129526;27;20054;-65
2022/11/16 11:39:19;;;;;;;9.05;3.65;;;;;;;11.92;74.25;99885.34;5127628;27;20019;-65
2022/11/16 11:41:59;;;;;;;11.20;3.33;;;;;;;11.87;74.84;99866.22;5127523;28;20114;-66
2022/11/16 11:44:48;;;;;;;9.77;3.15;;;;;;;11.87;74.87;99875.06;5118225;27;20034;-65
2022/11/16 11:47:20;;;;;;;;;;;;;;;11.99;73.90;99868.69;5106439;28;20038;-65
2022/11/16 11:49:51;;;;;;;8.80;3.03;;;;;;;11.79;75.14;99869.50;5108723;28;19915;-66
2022/11/16 11:52:37;;;;;;;9.52;3.50;;;;;;;11.87;75.58;99864.41;5107465;28;20016;-65
2022/11/16 11:55:06;;;;;;;7.10;3.42;;;;;;;12.22;74.52;99855.22;5124780;28;20035;-65
2022/11/16 11:57:37;;;;;;;6.18;2.85;;;;;;;13.10;71.69;99846.56;5129148;27;20139;-64
2022/11/16 12:00:05;;;;;;;8.40;3.03;;;;;;;14.16;69.21;99844.03;5128677;27;20062;-65
2022/11/16 12:03:13;;;;;;;8.35;2.63;;;;;;;15.17;66.52;99845.84;5127450;28;20035;-65
2022/11/16 12:05:48;;;;;;;11.38;3.05;;;;;;;15.19;64.38;99845.72;5082485;28;20047;-65
2022/11/16 12:08:20;;;;;;;8.48;2.60;;;;;;;15.17;62.21;99851.22;5087629;28;20426;-65
2022/11/16 12:10:54;;;;;;;7.00;2.28;;;;;;;15.19;62.48;99849.22;5087466;28;20111;-65
2022/11/16 12:13:57;;;;;;;7.75;2.40;;;;;;;15.22;63.58;99837.38;5102315;27;20098;-65
2022/11/16 12:16:41;;;;;;;8.30;2.58;;;;;;;16.07;62.41;99833.28;5128308;27;20100;-65
2022/11/16 12:19:37;;;;;;;7.35;2.33;;;;;;;16.51;61.14;99832.38;5120605;28;20542;-65